createdAt,value
2022-09-05T00:00:05.974Z,2.67
2022-09-05T00:02:53.127Z,2.30
2022-09-05T00:06:02.180Z,2.67
2022-09-05T00:08:57.532Z,2.40
2022-09-05T00:11:46.854Z,2.90
2022-09-05T00:15:15.372Z,2.70
2022-09-05T00:19:03.879Z,2.40
2022-09-05T00:24:28.938Z,3.08
2022-09-05T00:24:32.505Z,2.35
2022-09-05T00:27:17.380Z,2.45
2022-09-05T00:31:08.116Z,2.53
2022-09-05T00:33:50.913Z,2.42
2022-09-05T00:36:17.532Z,2.30
2022-09-05T00:38:56.994Z,2.50
2022-09-05T00:41:24.397Z,2.47
2022-09-05T00:43:52.874Z,2.70
2022-09-05T00:46:26.892Z,2.85
2022-09-05T00:49:18.479Z,2.60
2022-09-05T00:51:58.717Z,2.75
2022-09-05T00:54:58.769Z,2.15
2022-09-05T00:58:10.130Z,2.33
2022-09-05T01:00:56.882Z,2.63
2022-09-05T01:03:30.890Z,2.60
2022-09-05T01:06:00.607Z,1.97
2022-09-05T01:08:37.267Z,2.30
2022-09-05T01:11:22.161Z,2.50
2022-09-05T01:14:00.151Z,2.60
2022-09-05T01:16:45.345Z,2.53
2022-09-05T01:22:00.194Z,2.20
2022-09-05T01:24:37.020Z,2.67
2022-09-05T01:28:08.395Z,2.25
2022-09-05T01:30:46.422Z,2.38
2022-09-05T01:33:35.286Z,2.47
2022-09-05T01:36:26.070Z,2.50
2022-09-05T01:40:10.616Z,2.45
2022-09-05T01:42:08.397Z,2.47
2022-09-05T01:45:21.939Z,2.40
2022-09-05T01:47:54.717Z,2.33
2022-09-05T01:50:43.518Z,2.55
2022-09-05T01:53:11.469Z,2.67
2022-09-05T01:56:06.185Z,2.50
2022-09-05T01:59:07.985Z,2.58
2022-09-05T02:01:55.367Z,2.35
2022-09-05T02:04:56.060Z,2.65
2022-09-05T02:07:57.846Z,2.30
2022-09-05T02:10:43.169Z,2.47
2022-09-05T02:13:27.011Z,2.45
2022-09-05T02:16:19.440Z,2.45
2022-09-05T02:19:01.229Z,2.30
2022-09-05T02:21:40.709Z,2.50
2022-09-05T02:24:45.623Z,2.67
2022-09-05T02:27:43.650Z,2.40
2022-09-05T02:30:25.759Z,2.45
2022-09-05T02:32:58.703Z,3.17
2022-09-05T02:35:43.812Z,2.75
2022-09-05T02:43:57.229Z,2.45
2022-09-05T02:45:20.114Z,2.33
2022-09-05T02:45:24.219Z,2.33
2022-09-05T02:47:57.232Z,2.17
2022-09-05T02:53:59.298Z,2.65
2022-09-05T02:57:33.359Z,2.60
2022-09-05T02:57:37.619Z,2.60
2022-09-05T03:00:00.097Z,2.75
2022-09-05T03:02:37.334Z,2.33
2022-09-05T03:05:22.100Z,2.42
2022-09-05T03:08:05.703Z,2.58
2022-09-05T03:10:57.050Z,2.78
2022-09-05T03:13:53.884Z,2.63
2022-09-05T03:16:47.672Z,2.80
2022-09-05T03:19:46.693Z,2.90
2022-09-05T03:22:36.321Z,2.90
2022-09-05T03:25:38.781Z,2.92
2022-09-05T03:28:30.382Z,2.88
2022-09-05T03:31:20.311Z,2.72
2022-09-05T03:34:01.390Z,2.90
2022-09-05T03:37:05.613Z,2.88
2022-09-05T03:40:23.307Z,2.88
2022-09-05T03:43:02.072Z,2.58
2022-09-05T03:45:58.090Z,2.75
2022-09-05T03:48:39.898Z,2.90
2022-09-05T03:57:11.854Z,2.70
2022-09-05T03:57:20.405Z,2.90
2022-09-05T03:57:41.573Z,2.95
2022-09-05T04:00:25.769Z,2.55
2022-09-05T04:08:03.352Z,2.70
2022-09-05T04:08:27.685Z,3.38
2022-09-05T04:09:07.079Z,3.10
2022-09-05T04:11:56.235Z,3.00
2022-09-05T04:14:46.491Z,3.30
2022-09-05T04:17:37.340Z,2.92
2022-09-05T04:20:15.541Z,2.78
2022-09-05T04:23:19.403Z,3.50
2022-09-05T04:26:12.125Z,3.20
2022-09-05T04:28:44.637Z,2.85
2022-09-05T04:32:15.416Z,2.92
2022-09-05T04:35:22.711Z,2.60
2022-09-05T04:38:06.446Z,3.13
2022-09-05T04:40:39.522Z,2.78
2022-09-05T04:43:18.158Z,2.95
2022-09-05T04:46:05.196Z,3.30
2022-09-05T04:49:11.193Z,2.92
2022-09-05T04:54:27.608Z,3.10
2022-09-05T04:57:22.788Z,2.80
2022-09-05T05:02:33.551Z,2.88
2022-09-05T05:06:11.542Z,3.00
2022-09-05T05:06:11.749Z,3.20
2022-09-05T05:09:12.405Z,3.22
2022-09-05T05:17:53.835Z,3.25
2022-09-05T05:18:14.373Z,3.10
2022-09-05T05:18:41.152Z,2.80
2022-09-05T05:21:30.130Z,3.08
2022-09-05T05:24:01.066Z,3.08
2022-09-05T05:26:45.760Z,3.10
2022-09-05T05:29:19.853Z,2.97
2022-09-05T05:31:53.602Z,3.35
2022-09-05T05:35:01.659Z,3.15
2022-09-05T05:37:31.410Z,3.42
2022-09-05T05:40:09.898Z,3.30
2022-09-05T05:42:41.821Z,3.90
2022-09-05T05:45:26.845Z,3.83
2022-09-05T05:48:01.695Z,3.72
2022-09-05T05:53:45.483Z,3.20
2022-09-05T05:56:40.121Z,3.63
2022-09-05T05:59:25.646Z,3.30
2022-09-05T06:02:14.014Z,3.53
2022-09-05T06:05:07.938Z,3.20
2022-09-05T06:09:35.083Z,3.20
2022-09-05T06:14:59.315Z,3.20
2022-09-05T06:15:02.059Z,3.40
2022-09-05T06:17:28.299Z,2.92
2022-09-05T06:22:06.574Z,2.67
2022-09-05T06:23:40.115Z,2.85
2022-09-05T06:26:35.083Z,2.90
2022-09-05T06:29:20.619Z,2.70
2022-09-05T06:31:59.496Z,3.00
2022-09-05T06:34:35.963Z,3.15
2022-09-05T06:37:38.804Z,3.33
2022-09-05T06:40:11.995Z,3.45
2022-09-05T06:43:12.473Z,3.20
2022-09-05T06:45:51.263Z,3.50
2022-09-05T06:48:58.633Z,3.30
2022-09-05T06:52:26.327Z,3.55
2022-09-05T06:55:11.292Z,3.55
2022-09-05T06:58:02.893Z,3.70
2022-09-05T07:00:45.247Z,3.92
2022-09-05T07:03:37.946Z,3.92
2022-09-05T07:06:05.782Z,3.67
2022-09-05T07:08:59.190Z,3.70
2022-09-05T07:11:42.132Z,3.58
2022-09-05T07:14:23.213Z,3.33
2022-09-05T07:17:08.796Z,4.00
2022-09-05T07:19:46.531Z,3.42
2022-09-05T07:22:48.782Z,3.95
2022-09-05T07:25:19.383Z,3.92
2022-09-05T07:28:29.740Z,4.80
2022-09-05T07:30:51.286Z,6.85
2022-09-05T07:33:25.457Z,4.38
2022-09-05T07:35:54.640Z,5.03
2022-09-05T07:38:48.302Z,4.25
2022-09-05T07:41:29.315Z,4.72
2022-09-05T07:44:04.675Z,4.68
2022-09-05T07:46:38.574Z,4.55
2022-09-05T07:49:11.227Z,4.80
2022-09-05T07:56:51.806Z,4.03
2022-09-05T07:57:08.252Z,4.82
2022-09-05T07:57:50.681Z,4.43
2022-09-05T08:00:23.137Z,3.97
2022-09-05T08:02:55.160Z,4.47
2022-09-05T08:05:34.916Z,4.35
2022-09-05T08:08:08.066Z,4.40
2022-09-05T08:11:22.138Z,4.40
2022-09-05T08:13:46.503Z,4.00
2022-09-05T08:16:21.131Z,3.42
2022-09-05T08:18:50.588Z,3.78
2022-09-05T08:21:27.825Z,3.97
2022-09-05T08:24:12.879Z,3.38
2022-09-05T08:26:58.942Z,3.55
2022-09-05T08:29:37.001Z,3.40
2022-09-05T08:32:41.575Z,3.78
2022-09-05T08:35:21.089Z,3.80
2022-09-05T08:37:50.283Z,3.85
2022-09-05T08:40:26.538Z,3.75
2022-09-05T08:45:22.771Z,3.38
2022-09-05T08:46:44.007Z,3.70
2022-09-05T08:49:12.415Z,3.35
2022-09-05T08:51:55.802Z,3.47
2022-09-05T08:54:36.005Z,3.78
2022-09-05T08:57:21.484Z,3.78
2022-09-05T09:00:12.012Z,3.58
2022-09-05T09:03:22.534Z,2.92
2022-09-05T09:06:14.314Z,3.43
2022-09-05T09:09:06.447Z,3.40
2022-09-05T09:11:38.508Z,3.60
2022-09-05T09:14:37.499Z,3.30
2022-09-05T09:17:26.981Z,3.60
2022-09-05T09:20:07.459Z,3.47
2022-09-05T09:22:36.936Z,3.20
2022-09-05T09:25:26.403Z,3.60
2022-09-05T09:28:45.125Z,3.78
2022-09-05T09:31:22.916Z,3.63
2022-09-05T09:34:13.922Z,3.47
2022-09-05T09:37:24.161Z,3.63
2022-09-05T09:41:00.746Z,3.88
2022-09-05T09:44:07.823Z,4.15
2022-09-05T09:46:46.539Z,3.70
2022-09-05T09:49:38.015Z,3.33
2022-09-05T09:52:24.697Z,3.55
2022-09-05T09:55:17.340Z,3.90
2022-09-05T09:58:17.962Z,4.07
2022-09-05T10:01:20.153Z,3.80
2022-09-05T10:10:38.917Z,3.90
2022-09-05T10:10:55.284Z,4.32
2022-09-05T10:11:18.856Z,4.00
2022-09-05T10:14:24.214Z,3.80
2022-09-05T10:18:02.284Z,4.07
2022-09-05T10:20:41.661Z,3.72
2022-09-05T10:23:37.458Z,3.90
2022-09-05T10:26:45.315Z,4.00
2022-09-05T10:29:47.129Z,3.53
2022-09-05T10:35:11.087Z,3.53
2022-09-05T10:35:50.511Z,4.05
2022-09-05T10:38:29.206Z,3.47
2022-09-05T10:41:20.988Z,3.97
2022-09-05T10:44:04.041Z,3.70
2022-09-05T10:46:51.302Z,3.53
2022-09-05T10:49:30.287Z,4.05
2022-09-05T10:52:18.902Z,3.95
2022-09-05T10:55:18.797Z,4.30
2022-09-05T10:58:06.863Z,4.05
2022-09-05T11:02:28.364Z,4.22
2022-09-05T11:04:59.938Z,4.25
2022-09-05T11:08:11.685Z,4.43
2022-09-05T11:11:01.295Z,4.72
2022-09-05T11:13:33.791Z,3.90
2022-09-05T11:16:33.857Z,4.35
2022-09-05T11:19:40.786Z,4.65
2022-09-05T11:22:22.162Z,4.82
2022-09-05T11:24:59.337Z,4.78
2022-09-05T11:27:29.624Z,4.22
2022-09-05T11:30:02.899Z,4.18
2022-09-05T11:38:35.517Z,4.57
2022-09-05T11:39:50.250Z,4.53
2022-09-05T11:40:03.914Z,4.43
2022-09-05T11:42:41.493Z,4.55
2022-09-05T11:45:19.946Z,4.30
2022-09-05T11:48:08.260Z,4.13
2022-09-05T11:50:58.514Z,4.20
2022-09-05T11:53:43.686Z,5.10
2022-09-05T11:56:28.571Z,4.43
2022-09-05T11:59:13.856Z,4.60
2022-09-05T12:01:44.049Z,4.47
2022-09-05T12:04:33.295Z,4.28
2022-09-05T12:10:47.628Z,4.28
2022-09-05T12:14:01.054Z,3.70
2022-09-05T12:16:50.475Z,4.28
2022-09-05T12:22:35.204Z,5.13
2022-09-05T12:27:36.562Z,4.15
2022-09-05T12:29:26.024Z,4.07
2022-09-05T12:32:36.695Z,4.57
2022-09-05T12:40:54.867Z,4.43
2022-09-05T12:41:35.535Z,4.55
2022-09-05T12:42:08.317Z,4.45
2022-09-05T12:42:08.495Z,4.07
2022-09-05T12:42:54.660Z,4.28
2022-09-05T12:48:39.360Z,4.13
2022-09-05T12:51:11.629Z,4.47
2022-09-05T12:54:09.394Z,4.50
2022-09-05T13:02:15.972Z,6.55
2022-09-05T13:03:01.533Z,4.53
2022-09-05T13:03:08.336Z,4.60
2022-09-05T13:05:45.498Z,4.72
2022-09-05T13:08:21.323Z,4.45
2022-09-05T13:14:52.527Z,4.63
2022-09-05T13:14:59.080Z,4.35
2022-09-05T13:16:58.064Z,4.90
2022-09-05T13:19:34.167Z,5.15
2022-09-05T13:22:03.763Z,4.70
2022-09-05T13:24:38.726Z,4.82
2022-09-05T13:27:21.363Z,4.88
2022-09-05T13:30:23.832Z,4.72
2022-09-05T13:38:05.628Z,5.57
2022-09-05T13:38:11.251Z,4.60
2022-09-05T13:39:03.313Z,5.22
2022-09-05T13:41:34.788Z,4.90
2022-09-05T13:44:25.101Z,5.20
2022-09-05T13:47:05.133Z,4.50
2022-09-05T13:50:31.320Z,4.65
2022-09-05T13:53:19.708Z,5.13
2022-09-05T13:56:03.602Z,4.70
2022-09-05T13:58:56.680Z,5.60
2022-09-05T14:01:36.016Z,4.60
2022-09-05T14:07:46.672Z,5.53
2022-09-05T14:10:35.730Z,5.15
2022-09-05T14:13:14.373Z,4.60
2022-09-05T14:15:56.434Z,5.22
2022-09-05T14:18:25.993Z,5.32
2022-09-05T14:21:17.416Z,5.38
2022-09-05T14:23:55.965Z,5.95
2022-09-05T14:26:31.813Z,4.97
2022-09-05T14:29:14.200Z,5.40
2022-09-05T14:36:32.185Z,5.55
2022-09-05T14:37:55.738Z,4.80
2022-09-05T14:38:16.050Z,4.90
2022-09-05T14:41:11.262Z,5.13
2022-09-05T14:44:16.808Z,5.22
2022-09-05T14:47:35.398Z,5.38
2022-09-05T14:50:27.751Z,5.40
2022-09-05T14:56:51.498Z,4.70
2022-09-05T15:02:43.393Z,5.38
2022-09-05T15:02:56.335Z,5.38
2022-09-05T15:05:40.111Z,4.97
2022-09-05T15:08:18.297Z,4.90
2022-09-05T15:12:17.411Z,5.00
2022-09-05T15:13:57.373Z,4.90
2022-09-05T15:16:25.927Z,5.10
2022-09-05T15:18:53.461Z,5.05
2022-09-05T15:21:30.754Z,4.75
2022-09-05T15:24:04.352Z,4.85
2022-09-05T15:26:57.383Z,5.22
2022-09-05T15:29:26.776Z,5.18
2022-09-05T15:32:11.967Z,5.00
2022-09-05T15:34:39.145Z,5.50
2022-09-05T15:37:37.070Z,5.88
2022-09-05T15:40:23.454Z,5.60
2022-09-05T15:43:00.429Z,5.43
2022-09-05T15:45:32.174Z,5.50
2022-09-05T15:48:18.296Z,5.35
2022-09-05T15:50:51.483Z,5.10
2022-09-05T15:53:31.591Z,5.00
2022-09-05T15:56:24.527Z,5.63
2022-09-05T15:58:58.496Z,5.20
2022-09-05T16:01:59.823Z,5.47
2022-09-05T16:10:27.772Z,4.93
2022-09-05T16:10:42.033Z,5.40
2022-09-05T16:10:45.240Z,6.00
2022-09-05T16:13:12.491Z,5.80
2022-09-05T16:20:39.471Z,5.63
2022-09-05T16:23:20.767Z,5.60
2022-09-05T16:23:29.887Z,5.43
2022-09-05T16:24:24.716Z,6.03
2022-09-05T16:27:04.939Z,5.85
2022-09-05T16:29:38.962Z,5.78
2022-09-05T16:32:41.381Z,6.40
2022-09-05T16:35:18.509Z,5.50
2022-09-05T16:37:58.106Z,5.40
2022-09-05T16:40:28.417Z,6.25
2022-09-05T16:43:03.147Z,5.88
2022-09-05T16:45:41.682Z,6.18
2022-09-05T16:48:24.199Z,5.93
2022-09-05T16:51:15.359Z,5.88
2022-09-05T16:53:58.324Z,5.95
2022-09-05T16:56:35.079Z,5.63
2022-09-05T16:59:23.932Z,5.65
2022-09-05T17:02:10.789Z,6.35
2022-09-05T17:05:04.663Z,5.65
2022-09-05T17:07:44.245Z,6.15
2022-09-05T17:10:16.526Z,5.90
2022-09-05T17:12:43.616Z,6.40
2022-09-05T17:15:10.249Z,5.97
2022-09-05T17:18:21.278Z,6.25
2022-09-05T17:20:37.038Z,5.95
2022-09-05T17:29:20.724Z,6.32
2022-09-05T17:29:26.024Z,6.50
2022-09-05T17:29:30.533Z,5.95
2022-09-05T17:31:58.020Z,6.50
2022-09-05T17:34:43.791Z,5.97
2022-09-05T17:37:32.662Z,6.55
2022-09-05T17:40:17.939Z,6.35
2022-09-05T17:42:56.853Z,6.55
2022-09-05T17:45:45.323Z,6.68
2022-09-05T17:48:36.081Z,6.40
2022-09-05T17:51:02.854Z,6.82
2022-09-05T17:53:33.346Z,6.68
2022-09-05T17:55:59.992Z,6.43
2022-09-05T17:58:48.902Z,7.00
2022-09-05T18:01:27.443Z,7.30
2022-09-05T18:04:09.758Z,7.47
2022-09-05T18:09:37.028Z,6.57
2022-09-05T18:12:34.505Z,6.82
2022-09-05T18:15:35.281Z,6.35
2022-09-05T18:18:05.472Z,6.63
2022-09-05T18:20:48.813Z,6.90
2022-09-05T18:23:39.170Z,7.00
2022-09-05T18:29:57.458Z,7.10
2022-09-05T18:32:12.089Z,6.95
2022-09-05T18:34:40.745Z,6.63
2022-09-05T18:37:36.749Z,6.93
2022-09-05T18:40:09.762Z,7.20
2022-09-05T18:42:57.330Z,7.07
2022-09-05T18:45:38.760Z,7.10
2022-09-05T18:48:29.992Z,6.93
2022-09-05T18:51:15.213Z,7.95
2022-09-05T18:53:47.499Z,7.88
2022-09-05T18:57:09.708Z,7.22
2022-09-05T18:59:34.496Z,7.13
2022-09-05T19:02:08.993Z,6.72
2022-09-05T19:05:01.284Z,7.00
2022-09-05T19:07:59.520Z,7.28
2022-09-05T19:10:34.581Z,7.38
2022-09-05T19:13:19.589Z,6.85
2022-09-05T19:16:03.683Z,7.32
2022-09-05T19:19:06.281Z,7.15
2022-09-05T19:21:33.782Z,7.25
2022-09-05T19:24:08.315Z,6.93
2022-09-05T19:26:35.297Z,7.28
2022-09-05T19:36:52.297Z,6.85
2022-09-05T19:36:57.821Z,6.88
2022-09-05T19:37:23.968Z,6.70
2022-09-05T19:37:44.522Z,6.90
2022-09-05T19:47:25.531Z,7.45
2022-09-05T19:47:35.373Z,7.20
2022-09-05T19:47:45.142Z,7.35
2022-09-05T19:49:12.536Z,7.40
2022-09-05T19:51:41.353Z,7.38
2022-09-05T19:54:26.529Z,6.95
2022-09-05T19:59:40.421Z,7.07
2022-09-05T20:02:33.147Z,7.43
2022-09-05T20:05:01.946Z,7.05
2022-09-05T20:07:31.616Z,7.30
2022-09-05T20:10:02.167Z,6.57
2022-09-05T20:12:37.133Z,7.30
2022-09-05T20:15:36.092Z,7.25
2022-09-05T20:18:28.154Z,7.00
2022-09-05T20:21:06.152Z,6.78
2022-09-05T20:23:33.494Z,7.22
2022-09-05T20:26:01.440Z,7.03
2022-09-05T20:28:35.835Z,7.13
2022-09-05T20:31:08.510Z,6.90
2022-09-05T20:33:53.934Z,6.90
2022-09-05T20:43:12.405Z,7.47
2022-09-05T20:43:18.924Z,7.60
2022-09-05T20:43:33.017Z,7.10
2022-09-05T20:46:24.287Z,7.38
2022-09-05T20:54:09.274Z,7.43
2022-09-05T20:54:15.840Z,7.53
2022-09-05T20:54:39.560Z,6.90
2022-09-05T20:57:18.301Z,7.60
2022-09-05T20:59:47.339Z,7.32
2022-09-05T21:02:27.696Z,7.85
2022-09-05T21:05:20.787Z,7.10
2022-09-05T21:07:53.177Z,7.53
2022-09-05T21:10:55.544Z,7.93
2022-09-05T21:13:36.281Z,7.50
2022-09-05T21:16:21.434Z,8.32
2022-09-05T21:18:50.789Z,8.13
2022-09-05T21:21:30.175Z,8.02
2022-09-05T21:23:59.621Z,7.78
2022-09-05T21:26:36.087Z,8.15
2022-09-05T21:29:12.984Z,7.63
2022-09-05T21:31:54.971Z,7.90
2022-09-05T21:34:29.866Z,7.90
2022-09-05T21:37:07.245Z,7.82
2022-09-05T21:39:59.528Z,8.07
2022-09-05T21:45:16.717Z,8.15
2022-09-05T21:47:48.741Z,8.40
2022-09-05T21:48:06.718Z,8.30
2022-09-05T21:50:39.747Z,8.05
2022-09-05T21:53:56.725Z,8.05
2022-09-05T21:59:25.343Z,7.95
2022-09-05T21:59:26.555Z,8.60
2022-09-05T22:01:51.071Z,8.50
2022-09-05T22:04:19.116Z,8.20
2022-09-05T22:06:48.647Z,8.63
2022-09-05T22:09:21.193Z,8.40
2022-09-05T22:11:51.406Z,8.23
2022-09-05T22:14:23.897Z,8.15
2022-09-05T22:16:57.721Z,8.55
2022-09-05T22:19:37.818Z,8.40
2022-09-05T22:22:16.409Z,8.40
2022-09-05T22:25:04.933Z,8.65
2022-09-05T22:27:34.675Z,8.13
2022-09-05T22:30:04.456Z,7.95
2022-09-05T22:32:34.358Z,8.85
2022-09-05T22:35:27.506Z,8.38
2022-09-05T22:37:59.813Z,8.23
2022-09-05T22:40:28.811Z,7.85
2022-09-05T22:42:57.365Z,8.38
2022-09-05T22:45:24.799Z,8.75
2022-09-05T22:47:51.540Z,8.40
2022-09-05T22:50:18.810Z,8.50
2022-09-05T22:52:45.488Z,8.55
2022-09-05T22:55:12.430Z,8.50
2022-09-05T22:57:40.558Z,8.05
2022-09-05T23:00:08.494Z,9.48
2022-09-05T23:02:35.292Z,8.93
2022-09-05T23:05:03.387Z,9.02
2022-09-05T23:07:30.158Z,8.98
2022-09-05T23:09:56.899Z,8.45
2022-09-05T23:12:23.684Z,10.57
2022-09-05T23:14:50.457Z,9.15
2022-09-05T23:17:17.369Z,10.05
2022-09-05T23:19:44.250Z,9.13
2022-09-05T23:22:10.964Z,9.63
2022-09-05T23:24:37.684Z,9.82
2022-09-05T23:27:04.403Z,9.23
2022-09-05T23:29:31.091Z,9.60
2022-09-05T23:31:57.796Z,10.73
2022-09-05T23:34:25.644Z,9.80
2022-09-05T23:36:52.581Z,10.85
2022-09-05T23:39:19.353Z,10.40
2022-09-05T23:41:46.053Z,10.52
2022-09-05T23:44:12.771Z,10.30
2022-09-05T23:46:40.462Z,10.30
2022-09-05T23:49:07.529Z,9.85
2022-09-05T23:51:34.273Z,9.80
2022-09-05T23:54:01.011Z,9.43
2022-09-05T23:56:27.715Z,9.40
2022-09-05T23:58:54.463Z,10.80
